• Join FlightAware (Why Join?)
  • Login
  • US Flag 
05:18PM EDT


 

Airport Tracker/Info


-or-


 

Live Flight TrackerFlight Track Log ✈ CSN3950 ✈ 20-Jul-2013 ✈ ZUCK / CKG - ZGGG / CAN

Flight Track Log - Related Links

Times and Time Zones

All times are in EDT time to prevent confusion due to time zone crossing. See the CSN3950 flight status page for this flight to view local times or setup timezone preferences in your user account.

Time Position Orientation Groundspeed Altitude Reporting Facility
EDT Latitude Longitude Course Direction KTS MPH feet Rate Location/Type
03:32AM 29.6337 106.7389 135° Southeast  Level Estimated
03:33AM 29.5480 106.8365 135° Southeast  Level Estimated
03:34AM 29.4622 106.9341 135° Southeast  Level Estimated
03:35AM 29.3763 107.0314 135° Southeast  Level Estimated
03:36AM 29.2904 107.1286 135° Southeast  Level Estimated
03:37AM 29.2044 107.2256 135° Southeast  Level Estimated
03:38AM 29.1183 107.3224 135° Southeast  Level Estimated
03:39AM 29.0321 107.4191 136° Southeast  Level Estimated
03:40AM 28.9459 107.5157 136° Southeast  Level Estimated
03:41AM 28.8596 107.6120 136° Southeast  Level Estimated
03:42AM 28.7733 107.7083 136° Southeast  Level Estimated
03:43AM 28.6868 107.8043 136° Southeast  Level Estimated
03:44AM 28.6003 107.9002 136° Southeast  Level Estimated
03:45AM 28.5138 107.9959 136° Southeast  Level Estimated
03:46AM 28.4271 108.0915 136° Southeast  Level Estimated
03:47AM 28.3404 108.1869 136° Southeast  Level Estimated
03:48AM 28.2537 108.2822 136° Southeast  Level Estimated
03:49AM 28.1668 108.3773 136° Southeast  Level Estimated
03:50AM 28.0800 108.4723 136° Southeast  Level Estimated
03:51AM 27.9930 108.5671 136° Southeast  Level Estimated
03:52AM 27.9060 108.6617 136° Southeast  Level Estimated
03:53AM 27.8339 108.7399 136° Southeast  Level Estimated
03:54AM 27.7618 108.8180 136° Southeast  Level Estimated
03:55AM 27.6896 108.8961 136° Southeast  Level Estimated
03:56AM 27.6174 108.9740 136° Southeast  Level Estimated
03:57AM 27.5452 109.0518 136° Southeast  Level Estimated
03:58AM 27.4729 109.1295 136° Southeast  Level Estimated
03:59AM 27.4006 109.2071 136° Southeast  Level Estimated
04:00AM 27.3282 109.2846 136° Southeast  Level Estimated
04:01AM 27.2558 109.3620 136° Southeast  Level Estimated
04:02AM 27.1833 109.4393 136° Southeast  Level Estimated
04:03AM 27.1108 109.5165 137° Southeast  Level Estimated
04:04AM 27.0383 109.5936 137° Southeast  Level Estimated
04:05AM 26.9657 109.6706 137° Southeast  Level Estimated
04:06AM 26.8931 109.7475 137° Southeast  Level Estimated
04:07AM 26.8204 109.8243 137° Southeast  Level Estimated
04:08AM 26.7477 109.9010 137° Southeast  Level Estimated
04:09AM 26.6749 109.9776 137° Southeast  Level Estimated
04:10AM 26.6021 110.0541 137° Southeast  Level Estimated
04:11AM 26.5293 110.1305 137° Southeast  Level Estimated
04:12AM 26.4564 110.2068 137° Southeast  Level Estimated
04:13AM 26.3835 110.2830 137° Southeast  Level Estimated
04:14AM 26.3106 110.3591 137° Southeast  Level Estimated
04:15AM 26.2376 110.4351 137° Southeast  Level Estimated
04:16AM 26.1646 110.5110 137° Southeast  Level Estimated
04:16AM 24.2980 111.2030 137° Southeast 444 511 35,100  Level FlightAware
04:17AM 26.0915 110.5869 137° Southeast  Level Estimated
04:17AM 24.2480 111.2440 143° Southeast 444 511 35,100  Level FlightAware
04:18AM 24.0720 111.3560 150° Southeast 459 528 34,700 -780 Descending FlightAware
04:19AM 23.9920 111.4280 141° Southeast 471 542 33,500 -1,260 Descending FlightAware
04:20AM 23.9070 111.4940 145° Southeast 479 551 32,800 -780 Descending FlightAware
04:21AM 23.8430 111.5470 143° Southeast 480 552 32,400 -240 Descending FlightAware
04:22AM 23.7530 111.6210 143° Southeast 480 552 32,400 -2,520 Level FlightAware
04:22AM 23.6850 111.7250 126° Southeast 462 532 28,200 -4,560 Descending FlightAware
04:23AM 23.6330 111.7890 132° Southeast 459 528 26,700 -2,820 Descending FlightAware
04:24AM 23.5570 111.8820 132° Southeast 461 531 24,100 -2,580 Descending FlightAware
04:25AM 23.4950 111.9570 132° Southeast 457 526 22,600 -1,500 Descending FlightAware
04:25AM 23.4450 112.0190 131° Southeast 454 522 22,100 -1,980 Descending FlightAware
04:26AM 23.3630 112.1210 131° Southeast 429 494 19,400 -2,460 Descending FlightAware
04:27AM 23.3160 112.1810 130° Southeast 424 488 18,200 -1,920 Descending FlightAware
04:28AM 23.2530 112.2600 131° Southeast 409 471 16,700 -1,680 Descending FlightAware
04:28AM 23.2050 112.3190 132° Southeast 403 464 15,800 -1,380 Descending FlightAware
04:29AM 23.1710 112.3620 131° Southeast 396 456 15,200 -1,020 Descending FlightAware
04:29AM 23.1160 112.4310 131° Southeast 399 459 14,600 -780 Descending FlightAware
04:30AM 23.0760 112.4920 125° Southeast 400 460 14,100 -780 Descending FlightAware
04:30AM 23.0700 112.5250 101° East 400 460 13,900 -900 Descending FlightAware
04:31AM 23.0700 112.6050 90° East 400 460 13,300 -900 Descending FlightAware
04:32AM 23.0700 112.6960 90° East 397 457 12,700 -840 Descending FlightAware
04:32AM 23.0690 112.7780 91° East 395 455 12,200 -780 Descending FlightAware
04:33AM 23.0680 112.8590 91° East 392 451 11,700 -780 Descending FlightAware
04:34AM 23.0750 112.9520 85° East 383 441 11,000 -660 Descending FlightAware
04:34AM 23.0960 112.9860 56° Northeast 345 397 10,900 -480 Descending FlightAware
04:35AM 23.1480 113.0220 32° Northeast 319 367 10,500 -960 Descending FlightAware
04:36AM 23.1900 113.0490 31° Northeast 311 358 9,800 -1,500 Descending FlightAware
04:36AM 23.2200 113.0680 30° Northeast 317 365 9,200 -840 Descending FlightAware
04:36AM 23.2570 113.0910 30° Northeast 315 362 9,100 -180 Descending FlightAware
04:37AM 23.2720 113.1010 31° Northeast 314 361 9,100  Level FlightAware
04:37AM 23.3060 113.1220 30° Northeast 311 358 9,100 -540 Level FlightAware
04:38AM 23.3410 113.1440 30° Northeast 307 353 8,600 -1,020 Descending FlightAware
04:38AM 23.3710 113.1630 30° Northeast 304 350 8,200 -720 Descending FlightAware
04:38AM 23.3960 113.1790 30° Northeast 283 326 8,100 -180 Descending FlightAware
04:39AM 23.4200 113.1890 21° North 264 304 8,100 -180 Level FlightAware
04:39AM 23.4470 113.1940 10° North 256 295 8,000 -480 Descending FlightAware
04:40AM 23.4800 113.2020 13° North 238 274 7,700 -600 Descending FlightAware
04:40AM 23.5130 113.2090 11° North 221 254 7,400 -720 Descending FlightAware
04:41AM 23.5410 113.2150 11° North 205 236 7,000 -1,020 Descending FlightAware
04:41AM 23.5660 113.2210 12° North 200 230 6,500 -960 Descending FlightAware
04:41AM 23.5870 113.2250 10° North 193 222 6,200 -960 Descending FlightAware
04:42AM 23.6010 113.2280 11° North 194 223 5,900 -960 Descending FlightAware
04:42AM 23.6250 113.2330 11° North 190 219 5,500 -720 Descending FlightAware
04:43AM 23.6510 113.2380 10° North 191 220 5,200 -540 Descending FlightAware
04:43AM 23.6690 113.2420 12° North 191 220 5,100 -240 Descending FlightAware
04:43AM 23.6900 113.2520 24° Northeast 182 209 5,000 -600 Descending FlightAware
04:44AM 23.6940 113.2650 71° East 170 196 4,700 -1,200 Descending FlightAware
04:44AM 23.6880 113.2900 105° East 168 193 4,200 -900 Descending FlightAware
04:45AM 23.6740 113.3080 130° Southeast 175 201 3,800 -540 Descending FlightAware
04:45AM 23.6570 113.3280 133° Southeast 178 205 3,700 -480 Descending FlightAware
04:46AM 23.6190 113.3450 158° South 167 192 3,200 -420 Descending FlightAware
04:46AM 23.6000 113.3550 154° Southeast 166 191 3,200  Level FlightAware
04:47AM 23.5900 113.3580 165° South 165 190 3,200  Level FlightAware
04:47AM 23.5830 113.3590 173° South 165 190 3,200 -180 Level FlightAware
04:47AM 23.5590 113.3550 189° South 168 193 3,100 -420 Descending FlightAware
04:48AM 23.5400 113.3500 194° South 164 189 2,800 -780 Descending FlightAware
04:49AM 23.5050 113.3400 195° South 135 155 2,100 -60 Descending FlightAware
04:50AM 23.4620 113.3280 194° South 142 163 2,700 840 Climbing FlightAware
04:50AM 23.4480 113.3240 195° South 158 182 3,400 1,980 Climbing FlightAware
04:51AM 23.4250 113.3180 193° South 185 213 4,400 1,740 Climbing FlightAware
04:51AM 23.4000 113.3130 190° South 222 255 5,000 900 Climbing FlightAware
04:51AM 23.3860 113.3100 191° South 223 257 5,100 120 Climbing FlightAware
04:52AM 23.3590 113.3030 193° South 224 258 5,100  Level FlightAware
04:52AM 23.3330 113.2950 196° South 225 259 5,100  Level FlightAware
04:53AM 23.3120 113.2890 195° South 227 261 5,100  Level FlightAware
04:53AM 23.2950 113.2730 221° Southwest 231 266 5,100  Level FlightAware
04:53AM 23.2880 113.2580 243° Southwest 229 264 5,100  Level FlightAware
04:54AM 23.2760 113.2350 240° Southwest 227 261 5,100  Level FlightAware
04:54AM 23.2600 113.2030 241° Southwest 226 260 5,100 120 Level FlightAware
04:54AM 23.2520 113.1860 243° Southwest 221 254 5,200 780 Climbing FlightAware
04:55AM 23.2380 113.1590 241° Southwest 223 257 5,700 900 Climbing FlightAware
04:55AM 23.2230 113.1310 240° Southwest 223 257 6,100 420 Climbing FlightAware
04:56AM 23.2100 113.1050 241° Southwest 221 254 6,100  Level FlightAware
04:56AM 23.2020 113.0940 232° Southwest 218 251 6,100  Level FlightAware
04:56AM 23.1880 113.0890 198° South 216 249 6,100  Level FlightAware
04:57AM 23.1670 113.1010 152° Southeast 226 260 6,100  Level FlightAware
04:57AM 23.1620 113.1150 111° Southeast 235 270 6,100  Level FlightAware
04:57AM 23.1770 113.1500 65° Northeast 262 302 6,100  Level FlightAware
04:58AM 23.1930 113.1590 27° Northeast 266 306 6,100  Level FlightAware
04:58AM 23.2060 113.1620 12° North 269 310 6,100  Level FlightAware
04:58AM 23.2320 113.1520 341° North 258 297 6,100  Level FlightAware
04:59AM 23.2310 113.0970 269° West 225 259 6,100  Level FlightAware
04:59AM 23.2210 113.0900 213° Southwest 223 257 6,100  Level FlightAware
04:59AM 23.2060 113.0850 197° South 214 246 6,100 120 Level FlightAware
05:00AM 23.1800 113.0970 157° South 215 247 6,200  Climbing FlightAware
05:00AM 23.1710 113.1090 129° Southeast 226 260 6,100 -240 Descending FlightAware
05:00AM 23.1680 113.1270 100° East 238 274 6,100  Level FlightAware
05:01AM 23.1710 113.1410 77° East 244 281 6,100  Level FlightAware
05:01AM 23.1800 113.1540 53° Northeast 256 295 6,100  Level FlightAware
05:01AM 23.1930 113.1610 26° Northeast 262 302 6,100  Level FlightAware
05:01AM 23.2040 113.1630 North 265 305 6,100  Level FlightAware
05:02AM 23.2330 113.1460 332° Northwest 250 288 6,100  Level FlightAware
05:02AM 23.2370 113.1290 284° West 237 273 6,100  Level FlightAware
05:03AM 23.2220 113.0970 243° Southwest 221 254 6,100  Level FlightAware
05:03AM 23.2090 113.0910 203° Southwest 218 251 6,100  Level FlightAware
05:03AM 23.1800 113.1000 164° South 225 259 6,100  Level FlightAware
05:03AM 23.1720 113.1120 126° Southeast 231 266 6,100  Level FlightAware
05:04AM 23.1690 113.1260 103° East 240 276 6,100  Level FlightAware
05:04AM 23.1750 113.1480 73° East 249 287 6,100  Level FlightAware
05:04AM 23.1840 113.1570 43° Northeast 257 296 6,100  Level FlightAware
05:04AM 23.2050 113.1640 17° North 264 304 6,100  Level FlightAware
05:05AM 23.2290 113.1530 337° Northwest 258 297 6,100  Level FlightAware
05:05AM 23.2380 113.1350 299° West 247 284 6,100  Level FlightAware
05:06AM 23.2270 113.0990 252° West 223 257 6,100  Level FlightAware
05:06AM 23.2130 113.0910 208° Southwest 218 251 6,100  Level FlightAware
05:06AM 23.2040 113.0890 192° South 218 251 6,100  Level FlightAware
05:07AM 23.1760 113.1090 147° Southeast 233 268 6,100  Level FlightAware
05:07AM 23.1740 113.1200 101° East 242 278 6,100  Level FlightAware
05:07AM 23.1960 113.1560 56° Northeast 261 300 6,100  Level FlightAware
05:08AM 23.2130 113.1600 12° North 263 303 6,100  Level FlightAware
05:08AM 23.2470 113.1640 North 265 305 6,100  Level FlightAware
05:09AM 23.2790 113.1680 North 264 304 6,100  Level FlightAware
05:09AM 23.3150 113.1700 North 261 300 6,100  Level FlightAware
05:09AM 23.3510 113.1720 North 263 303 6,100  Level FlightAware
05:10AM 23.3710 113.1740 North 263 303 6,100  Level FlightAware
05:10AM 23.4000 113.1750 North 258 297 6,100  Level FlightAware
05:11AM 23.4380 113.1800 North 225 259 6,100  Level FlightAware
05:11AM 23.4660 113.1830 North 205 236 6,100  Level FlightAware
05:12AM 23.4840 113.1850 North 197 227 6,100 -240 Level FlightAware
05:12AM 23.5130 113.1880 North 197 227 5,900 -780 Descending FlightAware
05:13AM 23.5400 113.1900 North 197 227 5,400 -960 Descending FlightAware
05:13AM 23.5600 113.1920 North 195 224 5,100 -900 Descending FlightAware
05:13AM 23.5710 113.1930 North 194 223 4,900 -780 Descending FlightAware
05:14AM 23.5940 113.1940 North 208 239 4,600 -660 Descending FlightAware
05:14AM 23.6300 113.2030 13° North 206 237 4,300 -600 Descending FlightAware
05:14AM 23.6390 113.2100 35° Northeast 202 232 4,200 -420 Descending FlightAware
05:15AM 23.6510 113.2220 42° Northeast 201 231 4,100 -180 Descending FlightAware
05:15AM 23.6650 113.2370 44° Northeast 202 232 4,100 -180 Level FlightAware
05:15AM 23.6800 113.2590 53° Northeast 193 222 4,000 -360 Descending FlightAware
05:16AM 23.6750 113.2840 102° East 178 205 3,800 -480 Descending FlightAware
05:16AM 23.6720 113.2940 108° East 173 199 3,700 -480 Descending FlightAware
05:17AM 23.6640 113.3150 113° Southeast 162 186 3,500 -240 Descending FlightAware
05:17AM 23.6570 113.3330 113° Southeast 162 186 3,500 -240 Level FlightAware
05:18AM 23.6260 113.3580 144° Southeast 150 173 3,200 -240 Descending FlightAware
05:18AM 23.6150 113.3600 171° South 149 171 3,200  Level FlightAware
05:19AM 23.6000 113.3630 170° South 151 174 3,200  Level FlightAware
05:19AM 23.5810 113.3610 186° South 141 162 3,200  Level FlightAware
05:20AM 23.5620 113.3560 194° South 138 159 3,200 -480 Level FlightAware
05:20AM 23.5380 113.3490 195° South 144 166 2,800 -960 Descending FlightAware
05:21AM 23.5260 113.3460 193° South 138 159 2,500 -720 Descending FlightAware
05:21AM 23.5080 113.3410 194° South 134 154 2,200 -360 Descending FlightAware
05:22AM 23.4940 113.3370 195° South 134 154 2,200  Level FlightAware
05:24AM 23.3924 113.2988 199° South  Level Estimated
05:25AM 23.3924 113.2988 223° Southwest  Level Estimated
05:26AM 23.3924 113.2988 223° Southwest  Level Estimated
05:27AM 23.3924 113.2988 223° Southwest  Level Estimated
05:28AM 23.3924 113.2988 223° Southwest  Level Estimated
05:29AM 23.3924 113.2988 223° Southwest  Level Estimated
05:30AM 23.3924 113.2988 223° Southwest  Level Estimated
05:31AM 23.3924 113.2988 223° Southwest  Level Estimated
05:32AM 23.3924 113.2988 223° Southwest  Level Estimated
05:33AM 23.3924 113.2988 223° Southwest  Level Estimated
05:34AM 23.3924 113.2988 223° Southwest  Level Estimated